sensor_id;sensor_type;location;lat;lon;timestamp;temperature;humidity
9973;DHT22;5027;53.560;10.062;2023-07-13T00:01:50;21.80;99.90
9973;DHT22;5027;53.560;10.062;2023-07-13T00:04:21;21.70;99.90
9973;DHT22;5027;53.560;10.062;2023-07-13T00:06:49;21.80;99.90
9973;DHT22;5027;53.560;10.062;2023-07-13T00:09:18;21.80;99.90
9973;DHT22;5027;53.560;10.062;2023-07-13T00:11:45;21.80;99.90
9973;DHT22;5027;53.560;10.062;2023-07-13T00:14:15;21.80;99.90
9973;DHT22;5027;53.560;10.062;2023-07-13T00:16:42;21.80;99.90
9973;DHT22;5027;53.560;10.062;2023-07-13T00:19:13;21.80;99.90
9973;DHT22;5027;53.560;10.062;2023-07-13T00:21:41;21.80;99.90
9973;DHT22;5027;53.560;10.062;2023-07-13T00:24:13;21.80;99.90
9973;DHT22;5027;53.560;10.062;2023-07-13T00:26:41;21.70;99.90
9973;DHT22;5027;53.560;10.062;2023-07-13T00:29:11;21.70;99.90
9973;DHT22;5027;53.560;10.062;2023-07-13T00:31:38;21.70;99.90
9973;DHT22;5027;53.560;10.062;2023-07-13T00:34:05;21.60;99.90
9973;DHT22;5027;53.560;10.062;2023-07-13T00:36:32;21.60;99.90
9973;DHT22;5027;53.560;10.062;2023-07-13T00:38:58;21.60;99.90
9973;DHT22;5027;53.560;10.062;2023-07-13T00:41:25;21.60;99.90
9973;DHT22;5027;53.560;10.062;2023-07-13T00:43:52;21.60;99.90
9973;DHT22;5027;53.560;10.062;2023-07-13T00:48:49;21.60;99.90
9973;DHT22;5027;53.560;10.062;2023-07-13T00:51:21;21.50;99.90
9973;DHT22;5027;53.560;10.062;2023-07-13T00:53:51;21.50;99.90
9973;DHT22;5027;53.560;10.062;2023-07-13T00:56:19;21.50;99.90
9973;DHT22;5027;53.560;10.062;2023-07-13T00:58:46;21.50;99.90
9973;DHT22;5027;53.560;10.062;2023-07-13T01:01:12;21.50;99.90
9973;DHT22;5027;53.560;10.062;2023-07-13T01:03:40;21.50;99.90
9973;DHT22;5027;53.560;10.062;2023-07-13T01:06:07;21.50;99.90
9973;DHT22;5027;53.560;10.062;2023-07-13T01:08:35;21.50;99.90
9973;DHT22;5027;53.560;10.062;2023-07-13T01:11:02;21.50;99.90
9973;DHT22;5027;53.560;10.062;2023-07-13T01:13:29;21.40;99.90
9973;DHT22;5027;53.560;10.062;2023-07-13T01:15:58;21.50;99.90
9973;DHT22;5027;53.560;10.062;2023-07-13T01:18:26;21.40;99.90
9973;DHT22;5027;53.560;10.062;2023-07-13T01:21:00;21.40;99.90
9973;DHT22;5027;53.560;10.062;2023-07-13T01:23:28;21.40;99.90
9973;DHT22;5027;53.560;10.062;2023-07-13T01:25:55;21.40;99.90
9973;DHT22;5027;53.560;10.062;2023-07-13T01:28:24;21.30;99.90
9973;DHT22;5027;53.560;10.062;2023-07-13T01:30:55;21.30;99.90
9973;DHT22;5027;53.560;10.062;2023-07-13T01:33:22;21.30;99.90
9973;DHT22;5027;53.560;10.062;2023-07-13T01:35:49;21.40;99.90
9973;DHT22;5027;53.560;10.062;2023-07-13T01:38:19;21.40;99.90
9973;DHT22;5027;53.560;10.062;2023-07-13T01:40:46;21.40;99.90
9973;DHT22;5027;53.560;10.062;2023-07-13T01:43:14;21.40;99.90
9973;DHT22;5027;53.560;10.062;2023-07-13T01:45:40;21.40;99.90
9973;DHT22;5027;53.560;10.062;2023-07-13T01:48:10;21.30;99.90
9973;DHT22;5027;53.560;10.062;2023-07-13T01:50:38;21.30;99.90
9973;DHT22;5027;53.560;10.062;2023-07-13T01:53:05;21.40;99.90
9973;DHT22;5027;53.560;10.062;2023-07-13T01:55:33;21.40;99.90
9973;DHT22;5027;53.560;10.062;2023-07-13T01:58:02;21.40;99.90
9973;DHT22;5027;53.560;10.062;2023-07-13T02:00:29;21.40;99.90
9973;DHT22;5027;53.560;10.062;2023-07-13T02:02:56;21.40;99.90
9973;DHT22;5027;53.560;10.062;2023-07-13T02:05:23;21.40;99.90
9973;DHT22;5027;53.560;10.062;2023-07-13T02:07:50;21.30;99.90
9973;DHT22;5027;53.560;10.062;2023-07-13T02:10:17;21.30;99.90
9973;DHT22;5027;53.560;10.062;2023-07-13T02:12:44;21.30;99.90
9973;DHT22;5027;53.560;10.062;2023-07-13T02:15:11;21.20;99.90
9973;DHT22;5027;53.560;10.062;2023-07-13T02:17:38;21.20;99.90
9973;DHT22;5027;53.560;10.062;2023-07-13T02:20:05;21.30;99.90
9973;DHT22;5027;53.560;10.062;2023-07-13T02:22:32;21.30;99.90
9973;DHT22;5027;53.560;10.062;2023-07-13T02:25:00;21.20;99.90
9973;DHT22;5027;53.560;10.062;2023-07-13T02:27:26;21.20;99.90
9973;DHT22;5027;53.560;10.062;2023-07-13T02:29:53;21.20;99.90
9973;DHT22;5027;53.560;10.062;2023-07-13T02:32:21;21.20;99.90
9973;DHT22;5027;53.560;10.062;2023-07-13T02:34:47;21.20;99.90
9973;DHT22;5027;53.560;10.062;2023-07-13T02:37:14;21.20;99.90
9973;DHT22;5027;53.560;10.062;2023-07-13T02:39:41;21.30;99.90
9973;DHT22;5027;53.560;10.062;2023-07-13T02:42:08;21.20;99.90
9973;DHT22;5027;53.560;10.062;2023-07-13T02:44:34;21.20;99.90
9973;DHT22;5027;53.560;10.062;2023-07-13T02:47:01;21.20;99.90
9973;DHT22;5027;53.560;10.062;2023-07-13T02:49:29;21.20;99.90
9973;DHT22;5027;53.560;10.062;2023-07-13T02:51:55;21.10;99.90
9973;DHT22;5027;53.560;10.062;2023-07-13T02:54:22;21.10;99.90
9973;DHT22;5027;53.560;10.062;2023-07-13T02:56:49;21.10;99.90
9973;DHT22;5027;53.560;10.062;2023-07-13T02:59:16;21.10;99.90
9973;DHT22;5027;53.560;10.062;2023-07-13T03:01:42;21.10;99.90
9973;DHT22;5027;53.560;10.062;2023-07-13T03:04:10;21.00;99.90
9973;DHT22;5027;53.560;10.062;2023-07-13T03:06:39;21.00;99.90
9973;DHT22;5027;53.560;10.062;2023-07-13T03:09:06;21.00;99.90
9973;DHT22;5027;53.560;10.062;2023-07-13T03:11:35;21.00;99.90
9973;DHT22;5027;53.560;10.062;2023-07-13T03:14:11;21.10;99.90
9973;DHT22;5027;53.560;10.062;2023-07-13T03:16:40;21.10;99.90
9973;DHT22;5027;53.560;10.062;2023-07-13T03:19:07;21.10;99.90
9973;DHT22;5027;53.560;10.062;2023-07-13T03:21:34;21.10;99.90
9973;DHT22;5027;53.560;10.062;2023-07-13T03:24:01;21.10;99.90
9973;DHT22;5027;53.560;10.062;2023-07-13T03:26:28;21.10;99.90
9973;DHT22;5027;53.560;10.062;2023-07-13T03:28:56;21.10;99.90
9973;DHT22;5027;53.560;10.062;2023-07-13T03:31:28;21.10;99.90
9973;DHT22;5027;53.560;10.062;2023-07-13T03:33:56;21.10;99.90
9973;DHT22;5027;53.560;10.062;2023-07-13T03:36:26;21.10;99.90
9973;DHT22;5027;53.560;10.062;2023-07-13T03:38:58;21.10;99.90
9973;DHT22;5027;53.560;10.062;2023-07-13T03:41:34;21.00;99.90
9973;DHT22;5027;53.560;10.062;2023-07-13T03:44:00;21.00;99.90
9973;DHT22;5027;53.560;10.062;2023-07-13T03:46:27;21.00;99.90
9973;DHT22;5027;53.560;10.062;2023-07-13T03:48:56;20.90;99.90
9973;DHT22;5027;53.560;10.062;2023-07-13T03:51:23;21.00;99.90
9973;DHT22;5027;53.560;10.062;2023-07-13T03:53:50;21.00;99.90
9973;DHT22;5027;53.560;10.062;2023-07-13T03:56:19;21.10;99.90
9973;DHT22;5027;53.560;10.062;2023-07-13T03:58:48;21.00;99.90
9973;DHT22;5027;53.560;10.062;2023-07-13T04:01:23;21.10;99.90
9973;DHT22;5027;53.560;10.062;2023-07-13T04:03:51;21.10;99.90
9973;DHT22;5027;53.560;10.062;2023-07-13T04:06:23;21.00;99.90
9973;DHT22;5027;53.560;10.062;2023-07-13T04:08:53;21.00;99.90
9973;DHT22;5027;53.560;10.062;2023-07-13T04:11:22;21.00;99.90
9973;DHT22;5027;53.560;10.062;2023-07-13T04:13:50;21.00;99.90
9973;DHT22;5027;53.560;10.062;2023-07-13T04:16:18;21.00;99.90
9973;DHT22;5027;53.560;10.062;2023-07-13T04:18:46;21.00;99.90
9973;DHT22;5027;53.560;10.062;2023-07-13T04:21:14;21.00;99.90
9973;DHT22;5027;53.560;10.062;2023-07-13T04:23:41;21.00;99.90
9973;DHT22;5027;53.560;10.062;2023-07-13T04:26:08;20.90;99.90
9973;DHT22;5027;53.560;10.062;2023-07-13T04:28:35;20.90;99.90
9973;DHT22;5027;53.560;10.062;2023-07-13T04:31:02;20.90;99.90
9973;DHT22;5027;53.560;10.062;2023-07-13T04:33:29;20.90;99.90
9973;DHT22;5027;53.560;10.062;2023-07-13T04:35:56;20.90;99.90
9973;DHT22;5027;53.560;10.062;2023-07-13T04:38:26;21.00;99.90
9973;DHT22;5027;53.560;10.062;2023-07-13T04:40:59;21.00;99.90
9973;DHT22;5027;53.560;10.062;2023-07-13T04:43:27;21.00;99.90
9973;DHT22;5027;53.560;10.062;2023-07-13T04:45:55;21.00;99.90
9973;DHT22;5027;53.560;10.062;2023-07-13T04:48:22;21.00;99.90
9973;DHT22;5027;53.560;10.062;2023-07-13T04:50:55;21.00;99.90
9973;DHT22;5027;53.560;10.062;2023-07-13T04:53:23;21.00;99.90
9973;DHT22;5027;53.560;10.062;2023-07-13T04:55:50;21.00;99.90
9973;DHT22;5027;53.560;10.062;2023-07-13T04:58:17;21.00;99.90
9973;DHT22;5027;53.560;10.062;2023-07-13T05:00:44;21.10;99.90
9973;DHT22;5027;53.560;10.062;2023-07-13T05:03:11;21.10;99.90
9973;DHT22;5027;53.560;10.062;2023-07-13T05:05:37;21.10;99.90
9973;DHT22;5027;53.560;10.062;2023-07-13T05:08:04;21.20;99.90
9973;DHT22;5027;53.560;10.062;2023-07-13T05:10:31;21.10;99.90
9973;DHT22;5027;53.560;10.062;2023-07-13T05:12:58;21.20;99.90
9973;DHT22;5027;53.560;10.062;2023-07-13T05:15:26;21.20;99.90
9973;DHT22;5027;53.560;10.062;2023-07-13T05:17:53;21.20;99.90
9973;DHT22;5027;53.560;10.062;2023-07-13T05:20:19;21.20;99.90
9973;DHT22;5027;53.560;10.062;2023-07-13T05:22:46;21.10;99.90
9973;DHT22;5027;53.560;10.062;2023-07-13T05:25:14;21.10;99.90
9973;DHT22;5027;53.560;10.062;2023-07-13T05:27:41;21.10;99.90
9973;DHT22;5027;53.560;10.062;2023-07-13T05:30:08;21.20;99.90
9973;DHT22;5027;53.560;10.062;2023-07-13T05:32:37;21.20;99.90
9973;DHT22;5027;53.560;10.062;2023-07-13T05:35:04;21.20;99.90
9973;DHT22;5027;53.560;10.062;2023-07-13T05:37:31;21.20;99.90
9973;DHT22;5027;53.560;10.062;2023-07-13T05:39:58;21.30;99.90
9973;DHT22;5027;53.560;10.062;2023-07-13T05:42:25;21.30;99.90
9973;DHT22;5027;53.560;10.062;2023-07-13T05:44:52;21.30;99.90
9973;DHT22;5027;53.560;10.062;2023-07-13T05:47:19;21.20;99.90
9973;DHT22;5027;53.560;10.062;2023-07-13T05:49:46;21.30;99.90
9973;DHT22;5027;53.560;10.062;2023-07-13T05:52:12;21.20;99.90
9973;DHT22;5027;53.560;10.062;2023-07-13T05:54:39;21.40;99.90
9973;DHT22;5027;53.560;10.062;2023-07-13T05:57:06;21.30;99.90
9973;DHT22;5027;53.560;10.062;2023-07-13T05:59:32;21.30;99.90
9973;DHT22;5027;53.560;10.062;2023-07-13T06:01:59;21.20;99.90
9973;DHT22;5027;53.560;10.062;2023-07-13T06:04:26;21.20;99.90
9973;DHT22;5027;53.560;10.062;2023-07-13T06:06:53;21.20;99.90
9973;DHT22;5027;53.560;10.062;2023-07-13T06:09:19;21.20;99.90
9973;DHT22;5027;53.560;10.062;2023-07-13T06:11:46;21.20;99.90
9973;DHT22;5027;53.560;10.062;2023-07-13T06:14:13;21.20;99.90
9973;DHT22;5027;53.560;10.062;2023-07-13T06:16:40;21.30;99.90
9973;DHT22;5027;53.560;10.062;2023-07-13T06:19:07;21.30;99.90
9973;DHT22;5027;53.560;10.062;2023-07-13T06:21:34;21.30;99.90
9973;DHT22;5027;53.560;10.062;2023-07-13T06:24:01;21.30;99.90
9973;DHT22;5027;53.560;10.062;2023-07-13T06:26:28;21.30;99.90
9973;DHT22;5027;53.560;10.062;2023-07-13T06:28:54;21.20;99.90
9973;DHT22;5027;53.560;10.062;2023-07-13T06:31:21;21.30;99.90
9973;DHT22;5027;53.560;10.062;2023-07-13T06:33:48;21.30;99.90
9973;DHT22;5027;53.560;10.062;2023-07-13T06:36:15;21.40;99.90
9973;DHT22;5027;53.560;10.062;2023-07-13T06:38:42;21.30;99.90
9973;DHT22;5027;53.560;10.062;2023-07-13T06:41:08;21.30;99.90
9973;DHT22;5027;53.560;10.062;2023-07-13T06:43:36;21.30;99.90
9973;DHT22;5027;53.560;10.062;2023-07-13T06:46:03;21.30;99.90
9973;DHT22;5027;53.560;10.062;2023-07-13T06:48:29;21.30;99.90
9973;DHT22;5027;53.560;10.062;2023-07-13T06:50:56;21.30;99.90
9973;DHT22;5027;53.560;10.062;2023-07-13T06:53:24;21.30;99.90
9973;DHT22;5027;53.560;10.062;2023-07-13T06:55:51;21.30;99.90
9973;DHT22;5027;53.560;10.062;2023-07-13T06:58:18;21.40;99.90
9973;DHT22;5027;53.560;10.062;2023-07-13T07:00:46;21.40;99.90
9973;DHT22;5027;53.560;10.062;2023-07-13T07:03:13;21.30;99.90
9973;DHT22;5027;53.560;10.062;2023-07-13T07:05:40;21.30;99.90
9973;DHT22;5027;53.560;10.062;2023-07-13T07:08:07;21.40;99.90
9973;DHT22;5027;53.560;10.062;2023-07-13T07:10:35;21.40;99.90
9973;DHT22;5027;53.560;10.062;2023-07-13T07:13:03;21.40;99.90
9973;DHT22;5027;53.560;10.062;2023-07-13T07:15:30;21.50;99.90
9973;DHT22;5027;53.560;10.062;2023-07-13T07:17:57;21.50;99.90
9973;DHT22;5027;53.560;10.062;2023-07-13T07:20:24;21.50;99.90
9973;DHT22;5027;53.560;10.062;2023-07-13T07:22:51;21.50;99.90
9973;DHT22;5027;53.560;10.062;2023-07-13T07:25:18;21.50;99.90
9973;DHT22;5027;53.560;10.062;2023-07-13T07:27:45;21.50;99.90
9973;DHT22;5027;53.560;10.062;2023-07-13T07:30:15;21.50;99.90
9973;DHT22;5027;53.560;10.062;2023-07-13T07:32:45;21.50;99.90
9973;DHT22;5027;53.560;10.062;2023-07-13T07:35:14;21.40;99.90
9973;DHT22;5027;53.560;10.062;2023-07-13T07:37:41;21.50;99.90
9973;DHT22;5027;53.560;10.062;2023-07-13T07:40:11;21.50;99.90
9973;DHT22;5027;53.560;10.062;2023-07-13T07:42:40;21.50;99.90
9973;DHT22;5027;53.560;10.062;2023-07-13T07:45:07;21.60;99.90
9973;DHT22;5027;53.560;10.062;2023-07-13T07:47:34;21.60;99.90
9973;DHT22;5027;53.560;10.062;2023-07-13T07:50:01;21.60;99.90
9973;DHT22;5027;53.560;10.062;2023-07-13T07:52:28;21.70;99.90
9973;DHT22;5027;53.560;10.062;2023-07-13T07:54:55;21.70;99.90
9973;DHT22;5027;53.560;10.062;2023-07-13T07:57:42;21.70;99.90
9973;DHT22;5027;53.560;10.062;2023-07-13T08:00:12;21.70;99.90
9973;DHT22;5027;53.560;10.062;2023-07-13T08:02:43;21.70;99.90
9973;DHT22;5027;53.560;10.062;2023-07-13T08:05:13;21.70;99.90
9973;DHT22;5027;53.560;10.062;2023-07-13T08:07:43;21.60;99.90
9973;DHT22;5027;53.560;10.062;2023-07-13T08:10:10;21.60;99.90
9973;DHT22;5027;53.560;10.062;2023-07-13T08:12:38;21.60;99.90
9973;DHT22;5027;53.560;10.062;2023-07-13T08:15:14;21.70;99.90
9973;DHT22;5027;53.560;10.062;2023-07-13T08:17:41;21.70;99.90
9973;DHT22;5027;53.560;10.062;2023-07-13T08:20:09;21.70;99.90
9973;DHT22;5027;53.560;10.062;2023-07-13T08:22:36;21.70;99.90
9973;DHT22;5027;53.560;10.062;2023-07-13T08:25:03;21.70;99.90
9973;DHT22;5027;53.560;10.062;2023-07-13T08:27:31;21.70;99.90
9973;DHT22;5027;53.560;10.062;2023-07-13T08:29:58;21.70;99.90
9973;DHT22;5027;53.560;10.062;2023-07-13T08:32:24;21.80;99.90
9973;DHT22;5027;53.560;10.062;2023-07-13T08:34:52;21.80;99.90
9973;DHT22;5027;53.560;10.062;2023-07-13T08:37:19;21.90;99.90
9973;DHT22;5027;53.560;10.062;2023-07-13T08:39:46;21.80;99.90
9973;DHT22;5027;53.560;10.062;2023-07-13T08:42:49;21.90;99.90
9973;DHT22;5027;53.560;10.062;2023-07-13T08:48:14;21.90;99.90
9973;DHT22;5027;53.560;10.062;2023-07-13T08:50:53;22.00;99.90
9973;DHT22;5027;53.560;10.062;2023-07-13T08:53:39;21.90;99.90
9973;DHT22;5027;53.560;10.062;2023-07-13T08:56:14;21.90;99.90
9973;DHT22;5027;53.560;10.062;2023-07-13T08:58:44;21.80;99.90
9973;DHT22;5027;53.560;10.062;2023-07-13T09:01:36;21.90;99.90
9973;DHT22;5027;53.560;10.062;2023-07-13T09:04:14;21.90;99.90
9973;DHT22;5027;53.560;10.062;2023-07-13T09:12:22;22.00;99.90
9973;DHT22;5027;53.560;10.062;2023-07-13T09:14:54;22.00;99.90
9973;DHT22;5027;53.560;10.062;2023-07-13T09:17:41;22.00;99.90
9973;DHT22;5027;53.560;10.062;2023-07-13T09:20:25;22.00;99.90
9973;DHT22;5027;53.560;10.062;2023-07-13T09:22:53;22.00;99.90
9973;DHT22;5027;53.560;10.062;2023-07-13T09:25:30;22.10;99.90
9973;DHT22;5027;53.560;10.062;2023-07-13T09:28:17;22.10;99.90
9973;DHT22;5027;53.560;10.062;2023-07-13T09:33:30;22.10;99.90
9973;DHT22;5027;53.560;10.062;2023-07-13T09:35:58;22.10;99.90
9973;DHT22;5027;53.560;10.062;2023-07-13T09:38:28;22.10;99.90
9973;DHT22;5027;53.560;10.062;2023-07-13T09:43:29;22.10;99.90
9973;DHT22;5027;53.560;10.062;2023-07-13T09:45:56;22.10;99.90
9973;DHT22;5027;53.560;10.062;2023-07-13T09:48:23;22.10;99.90
9973;DHT22;5027;53.560;10.062;2023-07-13T09:50:54;22.10;99.90
9973;DHT22;5027;53.560;10.062;2023-07-13T09:53:22;22.10;99.90
9973;DHT22;5027;53.560;10.062;2023-07-13T09:55:50;22.20;99.90
9973;DHT22;5027;53.560;10.062;2023-07-13T09:58:30;22.20;99.90
9973;DHT22;5027;53.560;10.062;2023-07-13T10:00:59;22.20;99.90
9973;DHT22;5027;53.560;10.062;2023-07-13T10:03:34;22.20;99.90
9973;DHT22;5027;53.560;10.062;2023-07-13T10:06:18;22.20;99.90
9973;DHT22;5027;53.560;10.062;2023-07-13T10:08:46;22.30;99.90
9973;DHT22;5027;53.560;10.062;2023-07-13T10:11:28;22.30;99.90
9973;DHT22;5027;53.560;10.062;2023-07-13T10:14:02;22.40;99.90
9973;DHT22;5027;53.560;10.062;2023-07-13T10:16:32;22.40;99.90
9973;DHT22;5027;53.560;10.062;2023-07-13T10:21:50;22.40;99.90
9973;DHT22;5027;53.560;10.062;2023-07-13T10:24:22;22.40;99.90
9973;DHT22;5027;53.560;10.062;2023-07-13T10:29:41;22.40;99.90
9973;DHT22;5027;53.560;10.062;2023-07-13T10:32:11;22.50;99.90
9973;DHT22;5027;53.560;10.062;2023-07-13T10:34:45;22.50;99.90
9973;DHT22;5027;53.560;10.062;2023-07-13T10:37:21;22.50;99.90
9973;DHT22;5027;53.560;10.062;2023-07-13T10:39:50;22.50;99.90
9973;DHT22;5027;53.560;10.062;2023-07-13T10:42:29;22.50;99.90
9973;DHT22;5027;53.560;10.062;2023-07-13T10:44:57;22.50;99.90
9973;DHT22;5027;53.560;10.062;2023-07-13T10:47:24;22.60;99.90
9973;DHT22;5027;53.560;10.062;2023-07-13T10:49:54;22.60;99.90
9973;DHT22;5027;53.560;10.062;2023-07-13T10:52:42;22.60;99.90
9973;DHT22;5027;53.560;10.062;2023-07-13T10:55:36;22.50;99.90
9973;DHT22;5027;53.560;10.062;2023-07-13T11:03:38;22.60;99.90
9973;DHT22;5027;53.560;10.062;2023-07-13T11:06:29;22.60;99.90
9973;DHT22;5027;53.560;10.062;2023-07-13T11:11:45;22.70;99.90
9973;DHT22;5027;53.560;10.062;2023-07-13T11:14:36;22.70;99.90
9973;DHT22;5027;53.560;10.062;2023-07-13T11:23:09;22.70;99.90
9973;DHT22;5027;53.560;10.062;2023-07-13T11:25:44;22.80;99.90
9973;DHT22;5027;53.560;10.062;2023-07-13T11:38:43;22.80;99.90
9973;DHT22;5027;53.560;10.062;2023-07-13T11:41:23;22.80;99.90
9973;DHT22;5027;53.560;10.062;2023-07-13T11:43:54;22.90;99.90
9973;DHT22;5027;53.560;10.062;2023-07-13T11:46:22;22.90;99.90
9973;DHT22;5027;53.560;10.062;2023-07-13T11:48:49;22.90;99.90
9973;DHT22;5027;53.560;10.062;2023-07-13T11:51:30;22.90;99.90
9973;DHT22;5027;53.560;10.062;2023-07-13T11:54:06;22.90;99.90
9973;DHT22;5027;53.560;10.062;2023-07-13T11:56:34;22.90;99.90
9973;DHT22;5027;53.560;10.062;2023-07-13T11:59:07;22.90;99.90
9973;DHT22;5027;53.560;10.062;2023-07-13T12:01:36;22.90;99.90
9973;DHT22;5027;53.560;10.062;2023-07-13T12:04:19;22.90;99.90
9973;DHT22;5027;53.560;10.062;2023-07-13T12:07:03;23.10;99.90
9973;DHT22;5027;53.560;10.062;2023-07-13T12:09:30;23.10;99.90
9973;DHT22;5027;53.560;10.062;2023-07-13T12:11:58;22.90;99.90
9973;DHT22;5027;53.560;10.062;2023-07-13T12:14:28;22.90;99.90
9973;DHT22;5027;53.560;10.062;2023-07-13T12:16:55;22.90;99.90
9973;DHT22;5027;53.560;10.062;2023-07-13T12:19:26;22.80;99.90
9973;DHT22;5027;53.560;10.062;2023-07-13T12:21:57;22.80;99.90
9973;DHT22;5027;53.560;10.062;2023-07-13T12:24:25;22.90;99.90
9973;DHT22;5027;53.560;10.062;2023-07-13T12:27:02;22.80;99.90
9973;DHT22;5027;53.560;10.062;2023-07-13T12:29:30;22.70;99.90
9973;DHT22;5027;53.560;10.062;2023-07-13T12:31:58;22.70;99.90
9973;DHT22;5027;53.560;10.062;2023-07-13T12:34:26;22.70;99.90
9973;DHT22;5027;53.560;10.062;2023-07-13T12:36:58;22.60;99.90
9973;DHT22;5027;53.560;10.062;2023-07-13T12:39:45;22.40;99.90
9973;DHT22;5027;53.560;10.062;2023-07-13T12:42:31;22.30;99.90
9973;DHT22;5027;53.560;10.062;2023-07-13T12:45:20;22.30;99.90
9973;DHT22;5027;53.560;10.062;2023-07-13T12:47:49;22.40;99.90
9973;DHT22;5027;53.560;10.062;2023-07-13T12:50:19;22.40;99.90
9973;DHT22;5027;53.560;10.062;2023-07-13T12:52:54;22.30;99.90
9973;DHT22;5027;53.560;10.062;2023-07-13T12:55:23;22.20;99.90
9973;DHT22;5027;53.560;10.062;2023-07-13T12:57:53;22.10;99.90
9973;DHT22;5027;53.560;10.062;2023-07-13T13:00:31;22.00;99.90
9973;DHT22;5027;53.560;10.062;2023-07-13T13:03:06;22.00;99.90
9973;DHT22;5027;53.560;10.062;2023-07-13T13:06:03;21.80;99.90
9973;DHT22;5027;53.560;10.062;2023-07-13T13:08:33;21.80;99.90
9973;DHT22;5027;53.560;10.062;2023-07-13T13:11:01;21.80;99.90
9973;DHT22;5027;53.560;10.062;2023-07-13T13:13:28;21.70;99.90
9973;DHT22;5027;53.560;10.062;2023-07-13T13:15:55;21.70;99.90
9973;DHT22;5027;53.560;10.062;2023-07-13T13:18:24;21.80;99.90
9973;DHT22;5027;53.560;10.062;2023-07-13T13:20:51;21.70;99.90
9973;DHT22;5027;53.560;10.062;2023-07-13T13:23:20;21.70;99.90
9973;DHT22;5027;53.560;10.062;2023-07-13T13:25:49;21.70;99.90
9973;DHT22;5027;53.560;10.062;2023-07-13T13:28:19;21.60;99.90
9973;DHT22;5027;53.560;10.062;2023-07-13T13:30:50;21.70;99.90
9973;DHT22;5027;53.560;10.062;2023-07-13T13:33:20;21.80;99.90
9973;DHT22;5027;53.560;10.062;2023-07-13T13:35:48;21.80;99.90
9973;DHT22;5027;53.560;10.062;2023-07-13T13:38:26;21.90;99.90
9973;DHT22;5027;53.560;10.062;2023-07-13T13:40:53;21.90;99.90
9973;DHT22;5027;53.560;10.062;2023-07-13T13:43:26;21.90;99.90
9973;DHT22;5027;53.560;10.062;2023-07-13T13:45:57;21.90;99.90
9973;DHT22;5027;53.560;10.062;2023-07-13T13:48:34;22.00;99.90
9973;DHT22;5027;53.560;10.062;2023-07-13T13:51:16;22.20;99.90
9973;DHT22;5027;53.560;10.062;2023-07-13T13:53:45;22.30;99.90
9973;DHT22;5027;53.560;10.062;2023-07-13T13:56:15;22.30;99.90
9973;DHT22;5027;53.560;10.062;2023-07-13T13:58:44;22.40;99.90
9973;DHT22;5027;53.560;10.062;2023-07-13T14:01:16;22.40;99.90
9973;DHT22;5027;53.560;10.062;2023-07-13T14:03:44;22.40;99.90
9973;DHT22;5027;53.560;10.062;2023-07-13T14:06:13;22.40;99.90
9973;DHT22;5027;53.560;10.062;2023-07-13T14:08:40;22.50;99.90
9973;DHT22;5027;53.560;10.062;2023-07-13T14:11:11;22.50;99.90
9973;DHT22;5027;53.560;10.062;2023-07-13T14:13:43;22.50;99.90
9973;DHT22;5027;53.560;10.062;2023-07-13T14:16:12;22.60;99.90
9973;DHT22;5027;53.560;10.062;2023-07-13T14:18:41;22.60;99.90
9973;DHT22;5027;53.560;10.062;2023-07-13T14:21:12;22.40;99.90
9973;DHT22;5027;53.560;10.062;2023-07-13T14:23:39;22.30;99.90
9973;DHT22;5027;53.560;10.062;2023-07-13T14:26:15;22.40;99.90
9973;DHT22;5027;53.560;10.062;2023-07-13T14:28:45;22.50;99.90
9973;DHT22;5027;53.560;10.062;2023-07-13T14:31:14;22.60;99.90
9973;DHT22;5027;53.560;10.062;2023-07-13T14:33:42;22.60;99.90
9973;DHT22;5027;53.560;10.062;2023-07-13T14:36:24;22.50;99.90
9973;DHT22;5027;53.560;10.062;2023-07-13T14:38:52;22.50;99.90
9973;DHT22;5027;53.560;10.062;2023-07-13T14:41:20;22.50;99.90
9973;DHT22;5027;53.560;10.062;2023-07-13T14:43:47;22.60;99.90
9973;DHT22;5027;53.560;10.062;2023-07-13T14:46:33;22.60;99.90
9973;DHT22;5027;53.560;10.062;2023-07-13T14:49:04;22.60;99.90
9973;DHT22;5027;53.560;10.062;2023-07-13T14:51:31;22.60;99.90
9973;DHT22;5027;53.560;10.062;2023-07-13T14:54:03;22.60;99.90
9973;DHT22;5027;53.560;10.062;2023-07-13T14:56:30;22.50;99.90
9973;DHT22;5027;53.560;10.062;2023-07-13T14:58:57;22.60;99.90
9973;DHT22;5027;53.560;10.062;2023-07-13T15:01:24;22.60;99.90
9973;DHT22;5027;53.560;10.062;2023-07-13T15:03:52;22.60;99.90
9973;DHT22;5027;53.560;10.062;2023-07-13T15:06:19;22.70;99.90
9973;DHT22;5027;53.560;10.062;2023-07-13T15:08:46;22.70;99.90
9973;DHT22;5027;53.560;10.062;2023-07-13T15:11:15;22.60;99.90
9973;DHT22;5027;53.560;10.062;2023-07-13T15:13:42;22.60;99.90
9973;DHT22;5027;53.560;10.062;2023-07-13T15:18:41;22.60;99.90
9973;DHT22;5027;53.560;10.062;2023-07-13T15:21:10;22.70;99.90
9973;DHT22;5027;53.560;10.062;2023-07-13T15:23:41;22.70;99.90
9973;DHT22;5027;53.560;10.062;2023-07-13T15:26:13;22.50;99.90
9973;DHT22;5027;53.560;10.062;2023-07-13T15:28:44;22.40;99.90
9973;DHT22;5027;53.560;10.062;2023-07-13T15:31:26;22.60;99.90
9973;DHT22;5027;53.560;10.062;2023-07-13T15:33:58;22.60;99.90
9973;DHT22;5027;53.560;10.062;2023-07-13T15:36:26;22.60;99.90
9973;DHT22;5027;53.560;10.062;2023-07-13T15:38:55;22.60;99.90
9973;DHT22;5027;53.560;10.062;2023-07-13T15:41:24;22.50;99.90
9973;DHT22;5027;53.560;10.062;2023-07-13T15:43:56;22.60;99.90
9973;DHT22;5027;53.560;10.062;2023-07-13T15:46:26;22.70;99.90
9973;DHT22;5027;53.560;10.062;2023-07-13T15:48:54;22.70;99.90
9973;DHT22;5027;53.560;10.062;2023-07-13T15:51:25;22.60;99.90
9973;DHT22;5027;53.560;10.062;2023-07-13T15:54:01;22.60;99.90
9973;DHT22;5027;53.560;10.062;2023-07-13T15:56:34;22.70;99.90
9973;DHT22;5027;53.560;10.062;2023-07-13T15:59:02;22.60;99.90
9973;DHT22;5027;53.560;10.062;2023-07-13T16:01:30;22.50;99.90
9973;DHT22;5027;53.560;10.062;2023-07-13T16:03:59;22.60;99.90
9973;DHT22;5027;53.560;10.062;2023-07-13T16:06:33;22.70;99.90
9973;DHT22;5027;53.560;10.062;2023-07-13T16:09:01;22.60;99.90
9973;DHT22;5027;53.560;10.062;2023-07-13T16:11:34;22.60;99.90
9973;DHT22;5027;53.560;10.062;2023-07-13T16:14:02;22.60;99.90
9973;DHT22;5027;53.560;10.062;2023-07-13T16:16:32;22.60;99.90
9973;DHT22;5027;53.560;10.062;2023-07-13T16:19:04;22.60;99.90
9973;DHT22;5027;53.560;10.062;2023-07-13T16:21:34;22.60;99.90
9973;DHT22;5027;53.560;10.062;2023-07-13T16:24:02;22.60;99.90
9973;DHT22;5027;53.560;10.062;2023-07-13T16:26:37;22.60;99.90
9973;DHT22;5027;53.560;10.062;2023-07-13T16:29:22;22.60;99.90
9973;DHT22;5027;53.560;10.062;2023-07-13T16:32:04;22.70;99.90
9973;DHT22;5027;53.560;10.062;2023-07-13T16:34:34;22.80;99.90
9973;DHT22;5027;53.560;10.062;2023-07-13T16:37:03;22.80;99.90
9973;DHT22;5027;53.560;10.062;2023-07-13T16:39:33;22.70;99.90
9973;DHT22;5027;53.560;10.062;2023-07-13T16:42:01;22.80;99.90
9973;DHT22;5027;53.560;10.062;2023-07-13T16:44:29;22.80;99.90
9973;DHT22;5027;53.560;10.062;2023-07-13T16:46:57;22.60;99.90
9973;DHT22;5027;53.560;10.062;2023-07-13T16:49:29;22.60;99.90
9973;DHT22;5027;53.560;10.062;2023-07-13T16:51:57;22.70;99.90